sensor_id;sensor_type;location;lat;lon;timestamp;pressure;altitude;pressure_sealevel;temperature;humidity
52577;BME280;38469;53.562;10.048;2023-07-16T00:02:24;100601.94;;;20.53;100.00
52577;BME280;38469;53.562;10.048;2023-07-16T00:04:51;100629.72;;;20.77;100.00
52577;BME280;38469;53.562;10.048;2023-07-16T00:07:17;100586.97;;;20.46;100.00
52577;BME280;38469;53.562;10.048;2023-07-16T00:09:45;100631.31;;;20.78;100.00
52577;BME280;38469;53.562;10.048;2023-07-16T00:12:11;100610.81;;;20.74;100.00
52577;BME280;38469;53.562;10.048;2023-07-16T00:14:38;100607.84;;;20.86;100.00
52577;BME280;38469;53.562;10.048;2023-07-16T00:17:04;100586.41;;;20.78;100.00
52577;BME280;38469;53.562;10.048;2023-07-16T00:19:31;100563.75;;;20.87;100.00
52577;BME280;38469;53.562;10.048;2023-07-16T00:21:57;100584.84;;;20.39;100.00
52577;BME280;38469;53.562;10.048;2023-07-16T00:24:24;100616.19;;;20.64;100.00
52577;BME280;38469;53.562;10.048;2023-07-16T00:26:52;100616.50;;;20.78;100.00
52577;BME280;38469;53.562;10.048;2023-07-16T00:29:18;100626.00;;;20.92;100.00
52577;BME280;38469;53.562;10.048;2023-07-16T00:31:44;100629.66;;;20.96;100.00
52577;BME280;38469;53.562;10.048;2023-07-16T00:34:11;100633.59;;;20.92;100.00
52577;BME280;38469;53.562;10.048;2023-07-16T00:36:38;100653.63;;;20.90;100.00
52577;BME280;38469;53.562;10.048;2023-07-16T00:39:05;100680.50;;;20.91;100.00
52577;BME280;38469;53.562;10.048;2023-07-16T00:41:31;100682.44;;;20.87;100.00
52577;BME280;38469;53.562;10.048;2023-07-16T00:43:59;100670.25;;;20.61;100.00
52577;BME280;38469;53.562;10.048;2023-07-16T00:46:26;100673.13;;;20.64;100.00
52577;BME280;38469;53.562;10.048;2023-07-16T00:48:52;100661.41;;;20.78;100.00
52577;BME280;38469;53.562;10.048;2023-07-16T00:51:21;100643.59;;;20.70;100.00
52577;BME280;38469;53.562;10.048;2023-07-16T00:53:48;100647.72;;;20.57;100.00
52577;BME280;38469;53.562;10.048;2023-07-16T00:56:16;100687.31;;;20.52;100.00
52577;BME280;38469;53.562;10.048;2023-07-16T00:58:43;100684.06;;;20.50;100.00
52577;BME280;38469;53.562;10.048;2023-07-16T01:01:10;100686.81;;;20.31;100.00
52577;BME280;38469;53.562;10.048;2023-07-16T01:03:37;100681.03;;;20.40;100.00
52577;BME280;38469;53.562;10.048;2023-07-16T01:06:10;100662.00;;;20.49;100.00
52577;BME280;38469;53.562;10.048;2023-07-16T01:08:40;100642.13;;;20.38;100.00
52577;BME280;38469;53.562;10.048;2023-07-16T01:11:07;100641.53;;;20.48;100.00
52577;BME280;38469;53.562;10.048;2023-07-16T01:13:34;100648.75;;;20.49;100.00
52577;BME280;38469;53.562;10.048;2023-07-16T01:16:02;100675.13;;;20.45;100.00
52577;BME280;38469;53.562;10.048;2023-07-16T01:18:30;100693.19;;;20.12;100.00
52577;BME280;38469;53.562;10.048;2023-07-16T01:20:56;100684.63;;;20.05;100.00
52577;BME280;38469;53.562;10.048;2023-07-16T01:23:35;100691.25;;;20.16;100.00
52577;BME280;38469;53.562;10.048;2023-07-16T01:26:08;100674.06;;;20.33;100.00
52577;BME280;38469;53.562;10.048;2023-07-16T01:29:10;100671.09;;;20.11;100.00
52577;BME280;38469;53.562;10.048;2023-07-16T01:31:40;100663.59;;;20.15;100.00
52577;BME280;38469;53.562;10.048;2023-07-16T01:34:08;100636.50;;;20.03;100.00
52577;BME280;38469;53.562;10.048;2023-07-16T01:36:36;100654.13;;;20.39;100.00
52577;BME280;38469;53.562;10.048;2023-07-16T01:39:05;100655.56;;;20.29;100.00
52577;BME280;38469;53.562;10.048;2023-07-16T01:41:32;100678.34;;;20.12;100.00
52577;BME280;38469;53.562;10.048;2023-07-16T01:43:58;100679.44;;;20.23;100.00
52577;BME280;38469;53.562;10.048;2023-07-16T01:46:26;100680.41;;;20.15;100.00
52577;BME280;38469;53.562;10.048;2023-07-16T01:48:53;100690.47;;;20.16;100.00
52577;BME280;38469;53.562;10.048;2023-07-16T01:51:19;100664.53;;;20.19;100.00
52577;BME280;38469;53.562;10.048;2023-07-16T01:53:46;100679.59;;;20.30;100.00
52577;BME280;38469;53.562;10.048;2023-07-16T01:56:13;100679.38;;;20.19;100.00
52577;BME280;38469;53.562;10.048;2023-07-16T01:58:39;100673.41;;;20.05;100.00
52577;BME280;38469;53.562;10.048;2023-07-16T02:01:05;100679.50;;;20.11;100.00
52577;BME280;38469;53.562;10.048;2023-07-16T02:03:33;100684.78;;;20.12;100.00
52577;BME280;38469;53.562;10.048;2023-07-16T02:06:00;100683.22;;;20.15;100.00
52577;BME280;38469;53.562;10.048;2023-07-16T02:08:26;100697.88;;;20.24;100.00
52577;BME280;38469;53.562;10.048;2023-07-16T02:10:53;100702.69;;;20.08;100.00
52577;BME280;38469;53.562;10.048;2023-07-16T02:13:19;100710.47;;;20.14;100.00
52577;BME280;38469;53.562;10.048;2023-07-16T02:15:45;100702.84;;;20.15;100.00
52577;BME280;38469;53.562;10.048;2023-07-16T02:18:12;100687.13;;;20.10;100.00
52577;BME280;38469;53.562;10.048;2023-07-16T02:20:40;100683.78;;;20.05;100.00
52577;BME280;38469;53.562;10.048;2023-07-16T02:23:06;100687.03;;;20.07;100.00
52577;BME280;38469;53.562;10.048;2023-07-16T02:25:33;100674.75;;;19.96;100.00
52577;BME280;38469;53.562;10.048;2023-07-16T02:27:59;100676.28;;;19.93;100.00
52577;BME280;38469;53.562;10.048;2023-07-16T02:30:26;100684.38;;;19.79;100.00
52577;BME280;38469;53.562;10.048;2023-07-16T02:32:52;100685.09;;;19.76;100.00
52577;BME280;38469;53.562;10.048;2023-07-16T02:35:19;100705.50;;;19.77;100.00
52577;BME280;38469;53.562;10.048;2023-07-16T02:37:47;100700.75;;;19.62;100.00
52577;BME280;38469;53.562;10.048;2023-07-16T02:40:13;100695.66;;;19.83;100.00
52577;BME280;38469;53.562;10.048;2023-07-16T02:42:40;100697.34;;;20.03;100.00
52577;BME280;38469;53.562;10.048;2023-07-16T02:45:07;100684.97;;;19.73;100.00
52577;BME280;38469;53.562;10.048;2023-07-16T02:47:34;100699.91;;;19.77;100.00
52577;BME280;38469;53.562;10.048;2023-07-16T02:50:00;100681.56;;;19.79;100.00
52577;BME280;38469;53.562;10.048;2023-07-16T02:52:27;100694.94;;;19.70;100.00
52577;BME280;38469;53.562;10.048;2023-07-16T02:54:55;100687.25;;;19.83;100.00
52577;BME280;38469;53.562;10.048;2023-07-16T02:57:21;100688.06;;;19.83;100.00
52577;BME280;38469;53.562;10.048;2023-07-16T02:59:48;100679.81;;;20.06;100.00
52577;BME280;38469;53.562;10.048;2023-07-16T03:02:14;100682.63;;;19.90;100.00
52577;BME280;38469;53.562;10.048;2023-07-16T03:04:41;100694.75;;;19.79;100.00
52577;BME280;38469;53.562;10.048;2023-07-16T03:07:07;100701.94;;;20.11;100.00
52577;BME280;38469;53.562;10.048;2023-07-16T03:09:34;100686.78;;;19.96;100.00
52577;BME280;38469;53.562;10.048;2023-07-16T03:12:02;100690.56;;;20.04;100.00
52577;BME280;38469;53.562;10.048;2023-07-16T03:14:28;100694.84;;;19.98;100.00
52577;BME280;38469;53.562;10.048;2023-07-16T03:16:55;100683.47;;;19.91;100.00
52577;BME280;38469;53.562;10.048;2023-07-16T03:19:21;100682.16;;;20.04;100.00
52577;BME280;38469;53.562;10.048;2023-07-16T03:21:48;100674.03;;;19.99;100.00
52577;BME280;38469;53.562;10.048;2023-07-16T03:24:15;100689.00;;;20.22;100.00
52577;BME280;38469;53.562;10.048;2023-07-16T03:26:41;100690.41;;;20.47;100.00
52577;BME280;38469;53.562;10.048;2023-07-16T03:29:09;100688.81;;;20.15;100.00
52577;BME280;38469;53.562;10.048;2023-07-16T03:31:36;100695.91;;;20.09;100.00
52577;BME280;38469;53.562;10.048;2023-07-16T03:34:02;100701.44;;;20.21;100.00
52577;BME280;38469;53.562;10.048;2023-07-16T03:36:29;100702.72;;;20.43;100.00
52577;BME280;38469;53.562;10.048;2023-07-16T03:38:55;100706.84;;;20.14;100.00
52577;BME280;38469;53.562;10.048;2023-07-16T03:41:22;100703.25;;;19.98;100.00
52577;BME280;38469;53.562;10.048;2023-07-16T03:43:48;100705.31;;;20.01;100.00
52577;BME280;38469;53.562;10.048;2023-07-16T03:46:16;100702.38;;;20.13;100.00
52577;BME280;38469;53.562;10.048;2023-07-16T03:48:42;100712.19;;;20.19;100.00
52577;BME280;38469;53.562;10.048;2023-07-16T03:51:09;100706.22;;;20.20;100.00
52577;BME280;38469;53.562;10.048;2023-07-16T03:53:35;100709.31;;;20.00;100.00
52577;BME280;38469;53.562;10.048;2023-07-16T03:56:02;100714.00;;;19.96;100.00
52577;BME280;38469;53.562;10.048;2023-07-16T03:58:28;100727.13;;;19.92;100.00
52577;BME280;38469;53.562;10.048;2023-07-16T04:00:54;100733.72;;;19.84;100.00
52577;BME280;38469;53.562;10.048;2023-07-16T04:03:22;100747.38;;;19.70;100.00
52577;BME280;38469;53.562;10.048;2023-07-16T04:05:49;100733.09;;;19.90;100.00
52577;BME280;38469;53.562;10.048;2023-07-16T04:08:15;100749.81;;;19.87;100.00
52577;BME280;38469;53.562;10.048;2023-07-16T04:10:42;100768.63;;;19.71;100.00
52577;BME280;38469;53.562;10.048;2023-07-16T04:13:08;100762.00;;;19.79;100.00
52577;BME280;38469;53.562;10.048;2023-07-16T04:15:35;100770.50;;;19.82;100.00
52577;BME280;38469;53.562;10.048;2023-07-16T04:18:01;100764.25;;;19.73;100.00
52577;BME280;38469;53.562;10.048;2023-07-16T04:20:30;100781.09;;;19.89;100.00
52577;BME280;38469;53.562;10.048;2023-07-16T04:22:58;100784.78;;;19.77;100.00
52577;BME280;38469;53.562;10.048;2023-07-16T04:25:25;100795.53;;;19.60;100.00
52577;BME280;38469;53.562;10.048;2023-07-16T04:27:51;100783.91;;;19.46;100.00
52577;BME280;38469;53.562;10.048;2023-07-16T04:30:18;100771.56;;;19.62;100.00
52577;BME280;38469;53.562;10.048;2023-07-16T04:32:44;100785.22;;;19.64;100.00
52577;BME280;38469;53.562;10.048;2023-07-16T04:35:11;100788.81;;;19.49;100.00
52577;BME280;38469;53.562;10.048;2023-07-16T04:37:39;100793.69;;;19.52;100.00
52577;BME280;38469;53.562;10.048;2023-07-16T04:40:06;100793.28;;;19.65;100.00
52577;BME280;38469;53.562;10.048;2023-07-16T04:42:33;100798.19;;;19.99;100.00
52577;BME280;38469;53.562;10.048;2023-07-16T04:44:59;100793.75;;;19.83;100.00
52577;BME280;38469;53.562;10.048;2023-07-16T04:47:26;100778.28;;;19.73;100.00
52577;BME280;38469;53.562;10.048;2023-07-16T04:49:53;100778.13;;;19.97;100.00
52577;BME280;38469;53.562;10.048;2023-07-16T04:52:19;100781.09;;;20.04;100.00
52577;BME280;38469;53.562;10.048;2023-07-16T04:54:47;100796.56;;;20.14;100.00
52577;BME280;38469;53.562;10.048;2023-07-16T04:57:14;100763.72;;;19.99;100.00
52577;BME280;38469;53.562;10.048;2023-07-16T04:59:40;100780.81;;;20.41;100.00
52577;BME280;38469;53.562;10.048;2023-07-16T05:02:07;100762.53;;;20.47;100.00
52577;BME280;38469;53.562;10.048;2023-07-16T05:04:34;100775.34;;;20.63;100.00
52577;BME280;38469;53.562;10.048;2023-07-16T05:07:01;100776.50;;;20.62;100.00
52577;BME280;38469;53.562;10.048;2023-07-16T05:09:28;100776.34;;;20.71;100.00
52577;BME280;38469;53.562;10.048;2023-07-16T05:11:56;100783.47;;;20.68;100.00
52577;BME280;38469;53.562;10.048;2023-07-16T05:14:26;100789.84;;;20.50;100.00
52577;BME280;38469;53.562;10.048;2023-07-16T05:16:53;100792.63;;;20.30;100.00
52577;BME280;38469;53.562;10.048;2023-07-16T05:19:20;100798.94;;;20.43;100.00
52577;BME280;38469;53.562;10.048;2023-07-16T05:21:46;100808.97;;;20.44;100.00
52577;BME280;38469;53.562;10.048;2023-07-16T05:24:13;100801.16;;;20.53;100.00
52577;BME280;38469;53.562;10.048;2023-07-16T05:26:39;100802.72;;;20.51;100.00
52577;BME280;38469;53.562;10.048;2023-07-16T05:29:07;100815.38;;;20.45;100.00
52577;BME280;38469;53.562;10.048;2023-07-16T05:31:34;100802.03;;;20.38;100.00
52577;BME280;38469;53.562;10.048;2023-07-16T05:34:00;100813.44;;;20.64;100.00
52577;BME280;38469;53.562;10.048;2023-07-16T05:36:26;100810.09;;;20.59;100.00
52577;BME280;38469;53.562;10.048;2023-07-16T05:38:53;100823.91;;;20.48;100.00
52577;BME280;38469;53.562;10.048;2023-07-16T05:41:19;100820.53;;;20.58;100.00
52577;BME280;38469;53.562;10.048;2023-07-16T05:43:46;100830.88;;;20.54;100.00
52577;BME280;38469;53.562;10.048;2023-07-16T05:46:14;100824.22;;;20.78;100.00
52577;BME280;38469;53.562;10.048;2023-07-16T05:48:40;100835.97;;;20.68;100.00
52577;BME280;38469;53.562;10.048;2023-07-16T05:51:06;100838.00;;;20.67;100.00
52577;BME280;38469;53.562;10.048;2023-07-16T05:53:33;100844.50;;;20.71;100.00
52577;BME280;38469;53.562;10.048;2023-07-16T05:55:59;100845.25;;;20.87;100.00
52577;BME280;38469;53.562;10.048;2023-07-16T05:58:26;100840.53;;;20.91;99.35
52577;BME280;38469;53.562;10.048;2023-07-16T06:00:52;100850.78;;;20.84;97.57
52577;BME280;38469;53.562;10.048;2023-07-16T06:03:20;100839.66;;;20.87;96.58
52577;BME280;38469;53.562;10.048;2023-07-16T06:05:47;100852.28;;;20.78;95.00
52577;BME280;38469;53.562;10.048;2023-07-16T06:08:13;100842.75;;;20.82;93.12
52577;BME280;38469;53.562;10.048;2023-07-16T06:10:40;100827.38;;;20.76;92.46
52577;BME280;38469;53.562;10.048;2023-07-16T06:13:06;100854.25;;;20.77;89.07
52577;BME280;38469;53.562;10.048;2023-07-16T06:15:33;100850.38;;;20.66;88.73
52577;BME280;38469;53.562;10.048;2023-07-16T06:17:59;100847.81;;;20.92;88.95
52577;BME280;38469;53.562;10.048;2023-07-16T06:20:27;100843.34;;;20.91;88.07
52577;BME280;38469;53.562;10.048;2023-07-16T06:22:54;100855.75;;;21.06;87.44
52577;BME280;38469;53.562;10.048;2023-07-16T06:25:20;100867.81;;;21.06;87.60
52577;BME280;38469;53.562;10.048;2023-07-16T06:27:47;100862.63;;;21.08;85.86
52577;BME280;38469;53.562;10.048;2023-07-16T06:30:13;100866.88;;;21.18;87.21
52577;BME280;38469;53.562;10.048;2023-07-16T06:32:40;100871.97;;;21.12;85.94
52577;BME280;38469;53.562;10.048;2023-07-16T06:35:07;100874.78;;;21.12;85.82
52577;BME280;38469;53.562;10.048;2023-07-16T06:37:35;100848.16;;;21.06;85.20
52577;BME280;38469;53.562;10.048;2023-07-16T06:40:02;100872.97;;;21.04;85.11
52577;BME280;38469;53.562;10.048;2023-07-16T06:42:29;100865.75;;;21.03;86.13
52577;BME280;38469;53.562;10.048;2023-07-16T06:44:55;100888.69;;;21.24;83.22
52577;BME280;38469;53.562;10.048;2023-07-16T06:47:22;100848.16;;;21.45;84.33
52577;BME280;38469;53.562;10.048;2023-07-16T06:49:48;100850.31;;;21.51;83.07
52577;BME280;38469;53.562;10.048;2023-07-16T06:52:18;100881.16;;;21.67;80.96
52577;BME280;38469;53.562;10.048;2023-07-16T06:54:46;100857.13;;;21.88;80.50
52577;BME280;38469;53.562;10.048;2023-07-16T06:57:13;100882.44;;;23.05;77.44
52577;BME280;38469;53.562;10.048;2023-07-16T06:59:39;100872.59;;;23.48;69.70
52577;BME280;38469;53.562;10.048;2023-07-16T07:02:06;100879.72;;;24.01;66.06
52577;BME280;38469;53.562;10.048;2023-07-16T07:04:32;100893.41;;;24.02;63.79
52577;BME280;38469;53.562;10.048;2023-07-16T07:06:59;100882.47;;;24.34;62.37
52577;BME280;38469;53.562;10.048;2023-07-16T07:09:25;100890.06;;;24.70;61.10
52577;BME280;38469;53.562;10.048;2023-07-16T07:11:53;100896.16;;;24.32;60.34
52577;BME280;38469;53.562;10.048;2023-07-16T07:14:20;100892.38;;;24.17;60.88
52577;BME280;38469;53.562;10.048;2023-07-16T07:16:46;100896.78;;;24.59;59.98
52577;BME280;38469;53.562;10.048;2023-07-16T07:19:13;100890.47;;;25.26;59.79
52577;BME280;38469;53.562;10.048;2023-07-16T07:21:39;100868.66;;;25.27;56.19
52577;BME280;38469;53.562;10.048;2023-07-16T07:24:05;100872.47;;;25.63;55.31
52577;BME280;38469;53.562;10.048;2023-07-16T07:26:32;100894.88;;;26.06;53.56
52577;BME280;38469;53.562;10.048;2023-07-16T07:29:00;100886.81;;;26.12;53.42
52577;BME280;38469;53.562;10.048;2023-07-16T07:31:26;100860.97;;;26.42;50.65
52577;BME280;38469;53.562;10.048;2023-07-16T07:33:53;100897.41;;;26.75;49.83
52577;BME280;38469;53.562;10.048;2023-07-16T07:36:19;100896.63;;;26.78;49.83
52577;BME280;38469;53.562;10.048;2023-07-16T07:38:46;100897.84;;;26.91;50.20
52577;BME280;38469;53.562;10.048;2023-07-16T07:41:12;100888.66;;;27.80;47.59
52577;BME280;38469;53.562;10.048;2023-07-16T07:43:39;100899.50;;;29.16;46.46
52577;BME280;38469;53.562;10.048;2023-07-16T07:46:06;100898.38;;;29.03;44.52
52577;BME280;38469;53.562;10.048;2023-07-16T07:48:33;100901.41;;;28.27;46.62
52577;BME280;38469;53.562;10.048;2023-07-16T07:50:59;100894.38;;;28.97;46.57
52577;BME280;38469;53.562;10.048;2023-07-16T07:53:26;100900.66;;;27.01;47.76
52577;BME280;38469;53.562;10.048;2023-07-16T07:55:53;100884.13;;;25.44;52.06
52577;BME280;38469;53.562;10.048;2023-07-16T07:58:20;100893.72;;;25.28;53.99
52577;BME280;38469;53.562;10.048;2023-07-16T08:00:46;100891.97;;;25.10;53.63
52577;BME280;38469;53.562;10.048;2023-07-16T08:03:14;100898.03;;;25.08;56.17
52577;BME280;38469;53.562;10.048;2023-07-16T08:05:40;100895.13;;;24.10;56.71
52577;BME280;38469;53.562;10.048;2023-07-16T08:08:07;100906.72;;;24.42;58.23
52577;BME280;38469;53.562;10.048;2023-07-16T08:10:33;100905.06;;;24.34;60.98
52577;BME280;38469;53.562;10.048;2023-07-16T08:13:00;100905.81;;;24.71;59.01
52577;BME280;38469;53.562;10.048;2023-07-16T08:15:26;100899.53;;;24.48;58.71
52577;BME280;38469;53.562;10.048;2023-07-16T08:17:53;100907.88;;;24.34;57.63
52577;BME280;38469;53.562;10.048;2023-07-16T08:20:22;100903.69;;;24.21;57.61
52577;BME280;38469;53.562;10.048;2023-07-16T08:22:49;100907.34;;;24.21;57.04
52577;BME280;38469;53.562;10.048;2023-07-16T08:25:15;100897.91;;;24.47;56.92
52577;BME280;38469;53.562;10.048;2023-07-16T08:27:42;100897.13;;;24.10;57.78
52577;BME280;38469;53.562;10.048;2023-07-16T08:30:08;100894.28;;;24.47;57.94
52577;BME280;38469;53.562;10.048;2023-07-16T08:32:35;100895.59;;;24.56;56.23
52577;BME280;38469;53.562;10.048;2023-07-16T08:35:02;100894.25;;;24.90;55.94
52577;BME280;38469;53.562;10.048;2023-07-16T08:37:30;100899.47;;;24.85;56.50
52577;BME280;38469;53.562;10.048;2023-07-16T08:39:56;100897.69;;;24.70;54.99
52577;BME280;38469;53.562;10.048;2023-07-16T08:42:23;100892.06;;;24.26;56.14
52577;BME280;38469;53.562;10.048;2023-07-16T08:44:50;100899.00;;;23.99;57.35
52577;BME280;38469;53.562;10.048;2023-07-16T08:47:17;100907.03;;;23.97;57.15
52577;BME280;38469;53.562;10.048;2023-07-16T08:49:53;100900.44;;;23.86;58.71
52577;BME280;38469;53.562;10.048;2023-07-16T08:52:20;100902.06;;;23.83;60.60
52577;BME280;38469;53.562;10.048;2023-07-16T08:54:48;100913.97;;;24.40;61.40
52577;BME280;38469;53.562;10.048;2023-07-16T08:57:14;100903.84;;;24.35;55.41
52577;BME280;38469;53.562;10.048;2023-07-16T08:59:41;100912.53;;;24.56;56.29
52577;BME280;38469;53.562;10.048;2023-07-16T09:02:08;100916.72;;;24.73;55.10
52577;BME280;38469;53.562;10.048;2023-07-16T09:04:35;100914.50;;;24.52;51.69
52577;BME280;38469;53.562;10.048;2023-07-16T09:07:02;100938.22;;;24.84;53.58
52577;BME280;38469;53.562;10.048;2023-07-16T09:09:28;100924.41;;;24.72;50.28
52577;BME280;38469;53.562;10.048;2023-07-16T09:11:56;100938.22;;;24.44;51.74
52577;BME280;38469;53.562;10.048;2023-07-16T09:14:23;100925.44;;;24.57;50.08
52577;BME280;38469;53.562;10.048;2023-07-16T09:16:50;100928.19;;;24.50;49.88
52577;BME280;38469;53.562;10.048;2023-07-16T09:19:17;100932.56;;;24.44;49.45
52577;BME280;38469;53.562;10.048;2023-07-16T09:21:46;100944.47;;;24.23;50.40
52577;BME280;38469;53.562;10.048;2023-07-16T09:24:13;100950.88;;;24.20;49.99
52577;BME280;38469;53.562;10.048;2023-07-16T09:26:47;100942.88;;;24.26;52.12
52577;BME280;38469;53.562;10.048;2023-07-16T09:29:15;100952.66;;;24.36;51.31
52577;BME280;38469;53.562;10.048;2023-07-16T09:31:54;100959.28;;;24.17;52.96
52577;BME280;38469;53.562;10.048;2023-07-16T09:34:21;100967.59;;;24.03;51.96
52577;BME280;38469;53.562;10.048;2023-07-16T09:36:48;100962.44;;;23.79;51.51
52577;BME280;38469;53.562;10.048;2023-07-16T09:39:16;100959.38;;;23.91;52.68
52577;BME280;38469;53.562;10.048;2023-07-16T09:41:43;100981.88;;;24.17;53.09
52577;BME280;38469;53.562;10.048;2023-07-16T09:44:11;100964.13;;;24.16;52.59
52577;BME280;38469;53.562;10.048;2023-07-16T09:46:39;100957.00;;;24.29;51.85
52577;BME280;38469;53.562;10.048;2023-07-16T09:49:06;100966.25;;;24.63;52.26
52577;BME280;38469;53.562;10.048;2023-07-16T09:51:34;100974.00;;;24.00;50.70
52577;BME280;38469;53.562;10.048;2023-07-16T09:54:02;100959.22;;;23.80;51.25
52577;BME280;38469;53.562;10.048;2023-07-16T09:56:31;100958.56;;;23.90;51.53
52577;BME280;38469;53.562;10.048;2023-07-16T09:59:01;100962.41;;;24.42;49.66
52577;BME280;38469;53.562;10.048;2023-07-16T10:01:28;100978.66;;;24.55;50.23
52577;BME280;38469;53.562;10.048;2023-07-16T10:03:57;100967.59;;;24.36;50.35
52577;BME280;38469;53.562;10.048;2023-07-16T10:06:24;100982.63;;;24.47;49.42
52577;BME280;38469;53.562;10.048;2023-07-16T10:08:51;100992.06;;;24.25;49.58
52577;BME280;38469;53.562;10.048;2023-07-16T10:11:18;100978.78;;;23.96;50.68
52577;BME280;38469;53.562;10.048;2023-07-16T10:13:48;100997.22;;;24.53;49.67
52577;BME280;38469;53.562;10.048;2023-07-16T10:16:19;101013.00;;;24.97;48.86
52577;BME280;38469;53.562;10.048;2023-07-16T10:18:50;101004.91;;;24.96;48.65
52577;BME280;38469;53.562;10.048;2023-07-16T10:21:22;101003.59;;;24.13;50.23
52577;BME280;38469;53.562;10.048;2023-07-16T10:23:57;100992.84;;;23.92;51.29
52577;BME280;38469;53.562;10.048;2023-07-16T10:26:26;101010.97;;;23.36;52.31
52577;BME280;38469;53.562;10.048;2023-07-16T10:28:52;101005.69;;;23.11;52.16
52577;BME280;38469;53.562;10.048;2023-07-16T10:31:21;101021.16;;;23.44;51.76
52577;BME280;38469;53.562;10.048;2023-07-16T10:33:57;101007.72;;;23.93;49.14
52577;BME280;38469;53.562;10.048;2023-07-16T10:36:26;101016.75;;;23.72;49.96
52577;BME280;38469;53.562;10.048;2023-07-16T10:38:52;101026.97;;;24.13;49.48
52577;BME280;38469;53.562;10.048;2023-07-16T10:41:18;101027.44;;;23.89;50.85
52577;BME280;38469;53.562;10.048;2023-07-16T10:43:45;101039.41;;;24.05;50.42
52577;BME280;38469;53.562;10.048;2023-07-16T10:46:11;101036.34;;;23.62;50.26
52577;BME280;38469;53.562;10.048;2023-07-16T10:48:45;101036.31;;;23.36;52.22
52577;BME280;38469;53.562;10.048;2023-07-16T10:51:14;101036.34;;;23.62;51.20
52577;BME280;38469;53.562;10.048;2023-07-16T10:53:42;101031.72;;;23.50;50.95
52577;BME280;38469;53.562;10.048;2023-07-16T10:56:09;101039.47;;;23.57;51.56
52577;BME280;38469;53.562;10.048;2023-07-16T10:58:36;101037.91;;;23.59;50.58
52577;BME280;38469;53.562;10.048;2023-07-16T11:01:03;101034.59;;;23.54;50.34
52577;BME280;38469;53.562;10.048;2023-07-16T11:03:29;101032.09;;;23.49;50.53
52577;BME280;38469;53.562;10.048;2023-07-16T11:05:56;101034.84;;;23.71;51.69
52577;BME280;38469;53.562;10.048;2023-07-16T11:08:22;101042.59;;;23.78;50.81
52577;BME280;38469;53.562;10.048;2023-07-16T11:10:55;101023.72;;;23.82;50.47
52577;BME280;38469;53.562;10.048;2023-07-16T11:13:25;101033.09;;;24.19;51.29
52577;BME280;38469;53.562;10.048;2023-07-16T11:15:52;101035.66;;;24.31;50.36
52577;BME280;38469;53.562;10.048;2023-07-16T11:18:18;101041.00;;;24.06;50.40
52577;BME280;38469;53.562;10.048;2023-07-16T11:20:50;101049.53;;;24.43;49.94
52577;BME280;38469;53.562;10.048;2023-07-16T11:23:17;101044.75;;;24.47;49.43
52577;BME280;38469;53.562;10.048;2023-07-16T11:25:46;101037.03;;;24.77;48.91
52577;BME280;38469;53.562;10.048;2023-07-16T11:28:14;101050.97;;;24.63;49.83
52577;BME280;38469;53.562;10.048;2023-07-16T11:30:40;101046.13;;;24.64;49.01
52577;BME280;38469;53.562;10.048;2023-07-16T11:33:09;101046.53;;;25.02;47.65
52577;BME280;38469;53.562;10.048;2023-07-16T11:35:37;101042.78;;;24.88;48.55
52577;BME280;38469;53.562;10.048;2023-07-16T11:38:04;101044.50;;;24.99;48.38
52577;BME280;38469;53.562;10.048;2023-07-16T11:40:33;101052.22;;;24.69;47.78
52577;BME280;38469;53.562;10.048;2023-07-16T11:43:08;101019.94;;;24.30;48.41
52577;BME280;38469;53.562;10.048;2023-07-16T11:45:36;101066.16;;;24.52;47.71
52577;BME280;38469;53.562;10.048;2023-07-16T11:48:03;101054.25;;;24.32;48.59
52577;BME280;38469;53.562;10.048;2023-07-16T11:50:30;101043.84;;;24.40;49.67
52577;BME280;38469;53.562;10.048;2023-07-16T11:52:59;101054.66;;;24.67;48.61
52577;BME280;38469;53.562;10.048;2023-07-16T11:55:26;101059.25;;;24.49;48.43
52577;BME280;38469;53.562;10.048;2023-07-16T11:57:52;101066.91;;;24.45;49.25
52577;BME280;38469;53.562;10.048;2023-07-16T12:00:21;101062.09;;;24.49;49.13
52577;BME280;38469;53.562;10.048;2023-07-16T12:02:49;101065.84;;;24.60;48.75
52577;BME280;38469;53.562;10.048;2023-07-16T12:05:17;101061.69;;;24.84;47.58
52577;BME280;38469;53.562;10.048;2023-07-16T12:07:43;101062.00;;;25.15;47.12
52577;BME280;38469;53.562;10.048;2023-07-16T12:10:10;101059.13;;;25.08;48.47
52577;BME280;38469;53.562;10.048;2023-07-16T12:12:36;101069.84;;;24.89;48.00
52577;BME280;38469;53.562;10.048;2023-07-16T12:15:03;101066.81;;;24.71;47.53
52577;BME280;38469;53.562;10.048;2023-07-16T12:17:30;101069.81;;;24.52;48.29
52577;BME280;38469;53.562;10.048;2023-07-16T12:19:58;101072.09;;;24.40;48.70
52577;BME280;38469;53.562;10.048;2023-07-16T12:22:24;101075.88;;;24.54;48.34
52577;BME280;38469;53.562;10.048;2023-07-16T12:24:51;101082.16;;;24.70;47.74
52577;BME280;38469;53.562;10.048;2023-07-16T12:27:18;101081.44;;;24.80;48.58
52577;BME280;38469;53.562;10.048;2023-07-16T12:29:45;101088.88;;;24.95;47.48
52577;BME280;38469;53.562;10.048;2023-07-16T12:32:12;101083.94;;;24.52;48.46
52577;BME280;38469;53.562;10.048;2023-07-16T12:34:39;101047.72;;;24.28;48.62
52577;BME280;38469;53.562;10.048;2023-07-16T12:37:07;101082.72;;;24.53;47.39